createdAt,value
2022-09-17T00:01:29.730Z,1.40
2022-09-17T00:04:03.908Z,1.40
2022-09-17T00:06:33.361Z,2.10
2022-09-17T00:09:01.348Z,1.50
2022-09-17T00:11:31.253Z,1.30
2022-09-17T00:14:00.923Z,1.40
2022-09-17T00:16:31.173Z,0.93
2022-09-17T00:19:01.581Z,1.30
2022-09-17T00:21:30.342Z,1.23
2022-09-17T00:24:00.226Z,1.20
2022-09-17T00:26:29.607Z,1.20
2022-09-17T00:28:58.855Z,1.40
2022-09-17T00:31:28.135Z,1.07
2022-09-17T00:33:56.209Z,1.50
2022-09-17T00:36:25.519Z,1.20
2022-09-17T00:38:54.921Z,1.50
2022-09-17T00:41:25.061Z,1.60
2022-09-17T00:43:54.774Z,1.57
2022-09-17T00:46:29.687Z,1.40
2022-09-17T00:49:00.259Z,1.30
2022-09-17T00:51:33.932Z,1.60
2022-09-17T00:54:04.016Z,1.67
2022-09-17T00:56:35.910Z,1.60
2022-09-17T00:59:04.317Z,1.50
2022-09-17T01:01:33.033Z,1.70
2022-09-17T01:04:01.221Z,2.00
2022-09-17T01:06:36.562Z,1.90
2022-09-17T01:09:16.459Z,1.80
2022-09-17T01:12:06.945Z,2.17
2022-09-17T01:14:47.574Z,2.20
2022-09-17T01:17:23.400Z,2.03
2022-09-17T01:20:26.952Z,2.80
2022-09-17T01:23:10.301Z,2.33
2022-09-17T01:25:47.359Z,1.90
2022-09-17T01:28:33.830Z,1.70
2022-09-17T01:31:24.656Z,2.00
2022-09-17T01:34:01.577Z,1.90
2022-09-17T01:36:43.826Z,1.90
2022-09-17T01:39:20.402Z,2.00
2022-09-17T01:41:55.003Z,2.20
2022-09-17T01:44:29.243Z,1.80
2022-09-17T01:47:03.692Z,2.03
2022-09-17T01:49:33.573Z,1.80
2022-09-17T01:52:02.971Z,1.50
2022-09-17T01:54:37.090Z,1.77
2022-09-17T01:57:13.497Z,1.67
2022-09-17T01:59:45.611Z,1.60
2022-09-17T02:02:18.969Z,1.70
2022-09-17T02:04:54.070Z,1.57
2022-09-17T02:07:25.926Z,1.70
2022-09-17T02:10:00.726Z,1.40
2022-09-17T02:12:33.619Z,1.57
2022-09-17T02:15:06.709Z,2.20
2022-09-17T02:17:42.975Z,1.40
2022-09-17T02:20:12.259Z,1.50
2022-09-17T02:22:44.268Z,1.67
2022-09-17T02:25:18.998Z,1.70
2022-09-17T02:27:53.668Z,1.53
2022-09-17T02:30:21.670Z,1.70
2022-09-17T02:32:51.407Z,1.97
2022-09-17T02:35:19.515Z,1.60
2022-09-17T02:37:47.574Z,1.40
2022-09-17T02:40:18.923Z,3.73
2022-09-17T02:43:00.661Z,1.90
2022-09-17T02:45:40.150Z,1.50
2022-09-17T02:48:33.257Z,1.70
2022-09-17T02:51:17.826Z,1.70
2022-09-17T02:53:56.570Z,2.23
2022-09-17T02:56:34.978Z,1.70
2022-09-17T02:59:10.270Z,1.80
2022-09-17T03:01:44.350Z,1.73
2022-09-17T03:04:17.551Z,1.80
2022-09-17T03:06:48.078Z,1.97
2022-09-17T03:09:16.422Z,1.70
2022-09-17T03:11:44.410Z,1.80
2022-09-17T03:14:12.333Z,1.60
2022-09-17T03:16:40.345Z,1.50
2022-09-17T03:19:08.496Z,1.90
2022-09-17T03:21:37.800Z,1.50
2022-09-17T03:24:05.998Z,1.90
2022-09-17T03:26:33.945Z,1.80
2022-09-17T03:29:01.932Z,1.43
2022-09-17T03:31:30.113Z,2.50
2022-09-17T03:33:58.725Z,1.60
2022-09-17T03:36:26.727Z,2.03
2022-09-17T03:38:56.858Z,1.60
2022-09-17T03:41:25.254Z,2.00
2022-09-17T03:43:53.609Z,1.70
2022-09-17T03:46:22.032Z,1.50
2022-09-17T03:48:50.020Z,1.70
2022-09-17T03:51:18.209Z,1.77
2022-09-17T03:53:46.190Z,1.50
2022-09-17T03:56:15.507Z,1.40
2022-09-17T03:58:43.486Z,1.40
2022-09-17T04:01:11.866Z,1.90
2022-09-17T04:03:40.566Z,1.80
2022-09-17T04:06:08.803Z,1.67
2022-09-17T04:08:36.979Z,1.60
2022-09-17T04:11:04.955Z,1.80
2022-09-17T04:13:34.280Z,1.80
2022-09-17T04:16:02.586Z,1.50
2022-09-17T04:18:30.892Z,1.90
2022-09-17T04:20:59.067Z,1.77
2022-09-17T04:23:27.043Z,1.53
2022-09-17T04:25:54.995Z,2.07
2022-09-17T04:28:22.994Z,1.90
2022-09-17T04:30:52.374Z,2.00
2022-09-17T04:33:20.345Z,1.80
2022-09-17T04:35:48.501Z,1.53
2022-09-17T04:38:18.584Z,1.67
2022-09-17T04:40:47.338Z,1.40
2022-09-17T04:43:15.599Z,2.30
2022-09-17T04:45:46.829Z,1.70
2022-09-17T04:48:16.333Z,2.17
2022-09-17T04:50:44.373Z,1.90
2022-09-17T04:53:12.500Z,2.07
2022-09-17T04:55:40.635Z,1.70
2022-09-17T04:58:08.662Z,2.33
2022-09-17T05:00:36.635Z,2.13
2022-09-17T05:03:05.175Z,2.17
2022-09-17T05:05:34.548Z,2.27
2022-09-17T05:08:02.894Z,2.20
2022-09-17T05:10:30.884Z,2.50
2022-09-17T05:12:59.106Z,2.07
2022-09-17T05:15:27.723Z,2.40
2022-09-17T05:17:55.811Z,2.40
2022-09-17T05:20:23.801Z,2.60
2022-09-17T05:22:53.866Z,2.03
2022-09-17T05:25:24.768Z,2.07
2022-09-17T05:27:53.663Z,2.60
2022-09-17T05:30:21.875Z,3.03
2022-09-17T05:32:50.285Z,2.57
2022-09-17T05:35:18.583Z,2.57
2022-09-17T05:37:46.539Z,2.37
2022-09-17T05:40:16.685Z,2.20
2022-09-17T05:42:44.717Z,2.30
2022-09-17T05:45:12.732Z,2.00
2022-09-17T05:47:40.716Z,2.10
2022-09-17T05:50:09.270Z,2.20
2022-09-17T05:52:37.574Z,2.53
2022-09-17T05:55:06.254Z,2.00
2022-09-17T05:57:35.542Z,2.30
2022-09-17T06:00:05.032Z,1.97
2022-09-17T06:02:40.499Z,2.10
2022-09-17T06:05:09.470Z,2.07
2022-09-17T06:07:37.731Z,2.07
2022-09-17T06:10:08.176Z,1.97
2022-09-17T06:12:37.505Z,2.10
2022-09-17T06:15:06.626Z,2.40
2022-09-17T06:17:35.383Z,2.10
2022-09-17T06:20:05.384Z,1.90
2022-09-17T06:22:33.718Z,2.07
2022-09-17T06:25:03.708Z,2.27
2022-09-17T06:27:33.059Z,1.80
2022-09-17T06:30:02.657Z,1.73
2022-09-17T06:32:30.990Z,1.63
2022-09-17T06:34:58.967Z,1.87
2022-09-17T06:37:29.096Z,1.80
2022-09-17T06:39:57.139Z,1.93
2022-09-17T06:42:25.140Z,1.90
2022-09-17T06:44:53.099Z,1.93
2022-09-17T06:47:24.964Z,1.57
2022-09-17T06:49:52.942Z,1.50
2022-09-17T06:52:21.126Z,1.40
2022-09-17T06:54:49.092Z,1.60
2022-09-17T06:57:17.035Z,1.70
2022-09-17T06:59:45.010Z,1.50
2022-09-17T07:02:13.104Z,1.60
2022-09-17T07:04:42.475Z,1.47
2022-09-17T07:07:10.431Z,1.40
2022-09-17T07:09:38.439Z,1.30
2022-09-17T07:12:10.064Z,1.67
2022-09-17T07:14:38.030Z,1.63
2022-09-17T07:17:07.236Z,1.10
2022-09-17T07:19:35.188Z,1.27
2022-09-17T07:22:04.699Z,1.30
2022-09-17T07:24:33.127Z,1.10
2022-09-17T07:27:01.621Z,1.27
2022-09-17T07:29:29.899Z,1.23
2022-09-17T07:31:59.444Z,1.50
2022-09-17T07:34:28.971Z,1.10
2022-09-17T07:36:56.937Z,1.37
2022-09-17T07:39:26.443Z,1.20
2022-09-17T07:41:54.459Z,1.10
2022-09-17T07:44:22.627Z,1.07
2022-09-17T07:46:50.711Z,1.10
2022-09-17T07:49:18.733Z,1.20
2022-09-17T07:51:46.748Z,1.10
2022-09-17T07:54:14.746Z,1.33
2022-09-17T07:56:44.903Z,1.40
2022-09-17T07:59:13.078Z,1.40
2022-09-17T08:01:41.165Z,1.50
2022-09-17T08:04:09.202Z,1.10
2022-09-17T08:06:40.181Z,1.27
2022-09-17T08:09:09.846Z,1.40
2022-09-17T08:11:55.119Z,1.40
2022-09-17T08:14:29.383Z,1.77
2022-09-17T08:16:58.212Z,1.63
2022-09-17T08:19:26.259Z,1.50
2022-09-17T08:21:54.213Z,1.80
2022-09-17T08:24:22.173Z,1.40
2022-09-17T08:26:50.125Z,1.20
2022-09-17T08:29:18.091Z,1.53
2022-09-17T08:31:47.431Z,1.83
2022-09-17T08:34:15.509Z,1.23
2022-09-17T08:36:43.530Z,1.40
2022-09-17T08:39:12.182Z,1.50
2022-09-17T08:42:02.947Z,1.60
2022-09-17T08:44:40.413Z,1.50
2022-09-17T08:47:16.005Z,1.50
2022-09-17T08:49:50.739Z,1.47
2022-09-17T08:52:59.480Z,1.63
2022-09-17T08:55:36.649Z,1.97
2022-09-17T08:58:33.838Z,1.40
2022-09-17T09:01:10.697Z,1.70
2022-09-17T09:03:55.440Z,2.27
2022-09-17T09:06:28.645Z,1.77
2022-09-17T09:09:01.456Z,1.70
2022-09-17T09:11:31.758Z,2.10
2022-09-17T09:14:07.995Z,2.30
2022-09-17T09:16:42.053Z,1.90
2022-09-17T09:19:22.699Z,1.53
2022-09-17T09:22:02.882Z,1.83
2022-09-17T09:24:41.382Z,2.10
2022-09-17T09:27:18.563Z,2.03
2022-09-17T09:30:02.091Z,2.40
2022-09-17T09:32:45.661Z,2.23
2022-09-17T09:35:19.247Z,1.73
2022-09-17T09:37:54.781Z,1.90
2022-09-17T09:40:37.782Z,2.17
2022-09-17T09:43:17.279Z,1.80
2022-09-17T09:46:07.503Z,1.83
2022-09-17T09:48:45.263Z,2.33
2022-09-17T09:51:31.484Z,1.50
2022-09-17T09:54:14.674Z,2.30
2022-09-17T09:56:58.376Z,1.60
2022-09-17T09:59:26.877Z,1.77
2022-09-17T10:01:55.148Z,1.60
2022-09-17T10:04:25.787Z,1.80
2022-09-17T10:07:00.790Z,1.70
2022-09-17T10:09:29.957Z,1.90
2022-09-17T10:12:02.567Z,1.83
2022-09-17T10:14:32.011Z,2.03
2022-09-17T10:17:16.607Z,1.50
2022-09-17T10:19:45.691Z,1.57
2022-09-17T10:22:26.990Z,1.80
2022-09-17T10:24:56.933Z,1.67
2022-09-17T10:27:26.485Z,1.67
2022-09-17T10:30:04.013Z,1.47
2022-09-17T10:32:32.238Z,1.50
2022-09-17T10:35:04.268Z,1.80
2022-09-17T10:37:43.919Z,1.80
2022-09-17T10:40:30.597Z,1.20
2022-09-17T10:43:22.197Z,1.57
2022-09-17T10:46:00.651Z,2.10
2022-09-17T10:48:32.177Z,1.50
2022-09-17T10:51:02.910Z,1.40
2022-09-17T10:53:32.419Z,1.60
2022-09-17T10:56:13.966Z,1.50
2022-09-17T10:58:55.923Z,2.00
2022-09-17T11:01:50.832Z,1.73
2022-09-17T11:04:36.619Z,1.50
2022-09-17T11:07:26.697Z,1.80
2022-09-17T11:10:02.326Z,1.60
2022-09-17T11:12:42.695Z,1.90
2022-09-17T11:15:29.757Z,1.40
2022-09-17T11:18:23.097Z,1.40
2022-09-17T11:21:08.372Z,1.40
2022-09-17T11:23:57.554Z,1.30
2022-09-17T11:26:33.854Z,1.23
2022-09-17T11:29:16.317Z,0.90
2022-09-17T11:31:52.226Z,1.40
2022-09-17T11:34:32.319Z,1.90
2022-09-17T11:37:07.618Z,1.27
2022-09-17T11:39:41.479Z,1.17
2022-09-17T11:42:14.876Z,1.80
2022-09-17T11:44:48.437Z,1.10
2022-09-17T11:47:21.613Z,1.20
2022-09-17T11:49:54.967Z,1.03
2022-09-17T11:52:27.878Z,0.90
2022-09-17T11:55:00.440Z,0.90
2022-09-17T11:57:34.537Z,0.90
2022-09-17T12:00:07.589Z,0.80
2022-09-17T12:02:52.752Z,1.23
2022-09-17T12:05:23.571Z,1.03
2022-09-17T12:07:57.641Z,1.00
2022-09-17T12:10:48.998Z,0.70
2022-09-17T12:13:31.426Z,0.80
2022-09-17T12:16:11.432Z,1.43
2022-09-17T12:18:49.230Z,1.17
2022-09-17T12:21:22.210Z,0.80
2022-09-17T12:23:55.055Z,1.30
2022-09-17T12:26:44.829Z,1.60
2022-09-17T12:29:30.114Z,0.87
2022-09-17T12:32:03.673Z,0.93
2022-09-17T12:34:45.278Z,1.00
2022-09-17T12:37:20.508Z,0.93
2022-09-17T12:40:10.170Z,1.00
2022-09-17T12:43:02.445Z,1.27
2022-09-17T12:45:50.464Z,1.00
2022-09-17T12:48:54.155Z,1.30
2022-09-17T12:51:41.806Z,0.90
2022-09-17T12:54:19.828Z,1.20
2022-09-17T12:56:58.629Z,1.10
2022-09-17T12:59:31.480Z,1.10
2022-09-17T13:02:06.302Z,1.10
2022-09-17T13:05:01.993Z,1.13
2022-09-17T13:08:07.481Z,1.33
2022-09-17T13:10:48.314Z,0.90
2022-09-17T13:13:29.919Z,1.30
2022-09-17T13:16:13.288Z,1.03
2022-09-17T13:19:15.113Z,1.00
2022-09-17T13:21:52.503Z,0.90
2022-09-17T13:24:24.974Z,1.20
2022-09-17T13:26:54.539Z,1.20
2022-09-17T13:29:59.545Z,0.90
2022-09-17T13:32:47.955Z,1.20
2022-09-17T13:35:51.533Z,1.00
2022-09-17T13:38:23.770Z,0.90
2022-09-17T13:40:52.925Z,1.17
2022-09-17T13:43:26.808Z,0.80
2022-09-17T13:46:11.247Z,1.10
2022-09-17T13:48:50.281Z,0.70
2022-09-17T13:51:53.594Z,1.27
2022-09-17T13:54:24.286Z,0.97
2022-09-17T13:57:08.470Z,0.80
2022-09-17T13:59:38.266Z,0.70
2022-09-17T14:02:31.547Z,0.80
2022-09-17T14:05:25.439Z,0.70
2022-09-17T14:08:30.403Z,0.70
2022-09-17T14:11:00.753Z,0.70
2022-09-17T14:13:45.860Z,0.60
2022-09-17T14:16:35.794Z,0.70
2022-09-17T14:19:22.159Z,0.60
2022-09-17T14:22:00.426Z,0.90
2022-09-17T14:24:37.116Z,0.60
2022-09-17T14:27:13.241Z,0.60
2022-09-17T14:30:14.141Z,0.87
2022-09-17T14:32:47.580Z,0.83
2022-09-17T14:35:20.435Z,0.60
2022-09-17T14:37:55.539Z,0.77
2022-09-17T14:40:26.029Z,0.73
2022-09-17T14:42:56.976Z,0.80
2022-09-17T14:45:32.422Z,0.70
2022-09-17T14:48:29.767Z,0.70
2022-09-17T14:51:28.135Z,0.60
2022-09-17T14:54:14.731Z,0.60
2022-09-17T14:56:50.477Z,0.60
2022-09-17T14:59:25.045Z,0.63
2022-09-17T15:01:53.137Z,0.73
2022-09-17T15:04:26.094Z,0.70
2022-09-17T15:06:54.611Z,0.70
2022-09-17T15:09:26.013Z,0.70
2022-09-17T15:11:57.250Z,0.70
2022-09-17T15:14:29.969Z,0.70
2022-09-17T15:17:00.450Z,0.67
2022-09-17T15:19:33.260Z,0.70
2022-09-17T15:22:06.827Z,0.60
2022-09-17T15:24:41.239Z,0.60
2022-09-17T15:27:17.095Z,0.70
2022-09-17T15:29:48.758Z,0.70
2022-09-17T15:32:16.820Z,0.70
2022-09-17T15:34:45.013Z,0.70
2022-09-17T15:37:21.149Z,0.70
2022-09-17T15:39:51.914Z,0.70
2022-09-17T15:42:24.918Z,0.80
2022-09-17T15:44:53.275Z,0.80
2022-09-17T15:47:53.369Z,0.80
2022-09-17T15:50:23.407Z,0.60
2022-09-17T15:52:58.594Z,0.90
2022-09-17T15:55:31.846Z,0.87
2022-09-17T15:58:02.052Z,0.90
2022-09-17T16:00:31.318Z,0.90
2022-09-17T16:02:59.413Z,0.70
2022-09-17T16:05:55.783Z,0.80
2022-09-17T16:08:25.758Z,0.80
2022-09-17T16:10:53.792Z,0.90
2022-09-17T16:13:27.849Z,0.83
2022-09-17T16:15:57.144Z,1.17
2022-09-17T16:18:25.106Z,0.70
2022-09-17T16:20:53.062Z,0.90
2022-09-17T16:23:20.974Z,1.00
2022-09-17T16:25:49.155Z,1.20
2022-09-17T16:28:20.677Z,1.10
2022-09-17T16:30:50.647Z,1.23
2022-09-17T16:33:19.799Z,1.23
2022-09-17T16:35:47.737Z,2.03
2022-09-17T16:38:16.415Z,1.10
2022-09-17T16:40:47.058Z,1.30
2022-09-17T16:43:15.665Z,1.57
2022-09-17T16:45:43.597Z,0.97
2022-09-17T16:48:12.959Z,1.00
2022-09-17T16:50:42.154Z,1.07
2022-09-17T16:53:10.145Z,0.93
2022-09-17T16:55:39.357Z,1.00
2022-09-17T16:58:07.326Z,1.13
2022-09-17T17:00:35.544Z,1.20
2022-09-17T17:03:04.160Z,1.00
2022-09-17T17:05:37.769Z,1.67
2022-09-17T17:08:06.979Z,1.20
2022-09-17T17:10:35.590Z,1.20
2022-09-17T17:13:03.551Z,1.33
2022-09-17T17:15:31.514Z,1.20
2022-09-17T17:17:59.554Z,1.20
2022-09-17T17:20:27.502Z,0.90
2022-09-17T17:22:57.363Z,1.07
2022-09-17T17:25:26.979Z,0.90
2022-09-17T17:27:54.937Z,1.10
2022-09-17T17:30:22.897Z,1.23
2022-09-17T17:32:52.182Z,1.33
2022-09-17T17:35:20.651Z,1.37
2022-09-17T17:37:48.663Z,1.07
2022-09-17T17:40:18.182Z,0.97
2022-09-17T17:42:47.417Z,1.20
2022-09-17T17:45:15.776Z,1.10
2022-09-17T17:47:43.726Z,1.00
2022-09-17T17:50:11.701Z,1.07
2022-09-17T17:52:43.290Z,1.43
2022-09-17T17:55:11.258Z,1.10
2022-09-17T17:57:40.943Z,1.33
2022-09-17T18:00:10.874Z,1.10
2022-09-17T18:02:43.199Z,1.13
2022-09-17T18:05:11.625Z,1.50
2022-09-17T18:07:39.554Z,1.50
2022-09-17T18:10:08.224Z,1.20
2022-09-17T18:12:36.987Z,1.10
2022-09-17T18:15:08.133Z,1.50
2022-09-17T18:17:36.607Z,1.60
2022-09-17T18:20:05.237Z,1.23
2022-09-17T18:22:33.217Z,1.20
2022-09-17T18:25:01.158Z,1.50
2022-09-17T18:27:29.511Z,1.63
2022-09-17T18:29:57.530Z,1.43
2022-09-17T18:32:26.844Z,1.40
2022-09-17T18:34:54.805Z,1.00
2022-09-17T18:37:22.865Z,1.20
2022-09-17T18:39:58.565Z,1.07
2022-09-17T18:42:27.089Z,1.40
2022-09-17T18:44:55.090Z,1.20
2022-09-17T18:47:23.061Z,1.13
2022-09-17T18:49:52.384Z,1.50
2022-09-17T18:52:20.369Z,1.30
2022-09-17T18:54:48.942Z,1.20
2022-09-17T18:57:17.070Z,1.40
2022-09-17T18:59:45.689Z,1.43
2022-09-17T19:02:14.169Z,1.10
2022-09-17T19:04:42.222Z,0.83
2022-09-17T19:07:11.579Z,1.10
2022-09-17T19:09:39.518Z,1.40
2022-09-17T19:12:07.600Z,1.10
2022-09-17T19:14:35.568Z,0.80
2022-09-17T19:17:03.562Z,1.10
2022-09-17T19:19:31.493Z,1.10
2022-09-17T19:21:59.449Z,1.03
2022-09-17T19:24:28.747Z,1.40
2022-09-17T19:26:56.697Z,1.40
2022-09-17T19:29:24.756Z,1.40
2022-09-17T19:31:52.694Z,1.10
2022-09-17T19:34:20.844Z,1.10
2022-09-17T19:36:48.846Z,1.03
2022-09-17T19:39:17.621Z,1.10
2022-09-17T19:41:46.918Z,1.30
2022-09-17T19:44:14.906Z,1.20
2022-09-17T19:46:42.969Z,1.10
2022-09-17T19:49:11.030Z,1.20
2022-09-17T19:51:38.958Z,1.10
2022-09-17T19:54:09.425Z,1.50
2022-09-17T19:56:37.403Z,1.30
2022-09-17T19:59:07.595Z,1.10
2022-09-17T20:01:35.772Z,1.00
2022-09-17T20:04:04.361Z,1.37
2022-09-17T20:06:34.933Z,1.13
2022-09-17T20:09:02.927Z,1.30
2022-09-17T20:11:30.866Z,1.10
2022-09-17T20:14:02.782Z,1.30
2022-09-17T20:16:32.339Z,1.20
2022-09-17T20:19:00.412Z,1.07
2022-09-17T20:21:30.946Z,0.90
2022-09-17T20:23:59.741Z,1.60
2022-09-17T20:26:29.296Z,1.10
2022-09-17T20:28:57.469Z,1.00
2022-09-17T20:31:27.335Z,1.53
2022-09-17T20:33:58.182Z,1.20
2022-09-17T20:36:30.629Z,1.43
2022-09-17T20:39:22.674Z,1.00
2022-09-17T20:41:47.334Z,1.10
2022-09-17T20:44:15.298Z,1.10
2022-09-17T20:46:43.353Z,1.10
2022-09-17T20:49:12.789Z,0.93
2022-09-17T20:51:41.190Z,0.93
2022-09-17T20:54:09.438Z,0.93
2022-09-17T20:56:37.547Z,0.97
2022-09-17T20:59:14.181Z,1.00
2022-09-17T21:01:44.704Z,1.00
2022-09-17T21:04:15.897Z,1.00
2022-09-17T21:06:44.939Z,1.37
2022-09-17T21:09:16.449Z,0.73
2022-09-17T21:11:45.094Z,1.23
2022-09-17T21:14:15.215Z,0.73
2022-09-17T21:16:43.209Z,1.10
2022-09-17T21:19:12.742Z,1.00
2022-09-17T21:21:42.047Z,1.30
2022-09-17T21:24:10.859Z,1.17
2022-09-17T21:26:38.803Z,1.10
2022-09-17T21:29:06.755Z,1.20
2022-09-17T21:31:37.124Z,1.10
2022-09-17T21:34:07.195Z,0.90
2022-09-17T21:36:38.014Z,1.00
2022-09-17T21:39:10.992Z,1.20
2022-09-17T21:41:42.553Z,1.10
2022-09-17T21:44:11.653Z,1.20
2022-09-17T21:46:40.723Z,1.67
2022-09-17T21:49:09.134Z,1.00
2022-09-17T21:51:38.570Z,1.10
2022-09-17T21:54:09.846Z,0.90
2022-09-17T21:56:38.448Z,1.10
2022-09-17T21:59:07.797Z,1.50
2022-09-17T22:01:39.455Z,1.50
2022-09-17T22:04:08.908Z,1.50
2022-09-17T22:06:37.175Z,1.13
2022-09-17T22:09:08.450Z,1.17
2022-09-17T22:11:38.085Z,1.10
2022-09-17T22:14:09.019Z,1.70
2022-09-17T22:16:39.238Z,1.47
2022-09-17T22:19:08.574Z,1.10
2022-09-17T22:21:38.098Z,0.90
2022-09-17T22:24:08.322Z,1.10
2022-09-17T22:26:39.210Z,1.00
2022-09-17T22:29:09.372Z,1.10
2022-09-17T22:31:37.789Z,1.03
2022-09-17T22:34:09.075Z,1.30
2022-09-17T22:36:37.790Z,1.00
2022-09-17T22:39:07.956Z,1.13
2022-09-17T22:41:38.043Z,1.30
2022-09-17T22:44:08.345Z,1.07
2022-09-17T22:46:39.200Z,1.00
2022-09-17T22:49:08.000Z,1.30
2022-09-17T22:51:36.164Z,1.20
2022-09-17T22:54:04.331Z,1.83
2022-09-17T22:56:34.993Z,1.27
2022-09-17T22:59:03.921Z,1.10
2022-09-17T23:01:34.054Z,1.10
2022-09-17T23:04:02.779Z,1.10
2022-09-17T23:06:33.152Z,1.27
2022-09-17T23:09:01.677Z,1.10
2022-09-17T23:11:31.926Z,1.20
2022-09-17T23:14:03.306Z,1.20
2022-09-17T23:16:35.709Z,1.00
2022-09-17T23:19:04.225Z,0.93
2022-09-17T23:21:32.197Z,1.03
2022-09-17T23:24:00.199Z,1.20
2022-09-17T23:26:28.950Z,0.90
2022-09-17T23:29:01.125Z,1.10
2022-09-17T23:31:35.093Z,1.20
2022-09-17T23:34:04.866Z,1.03
2022-09-17T23:36:34.861Z,1.00
2022-09-17T23:39:03.105Z,1.20
2022-09-17T23:41:32.939Z,0.87
2022-09-17T23:44:02.422Z,1.10
2022-09-17T23:46:33.537Z,1.80
2022-09-17T23:49:01.710Z,1.20
2022-09-17T23:51:31.544Z,1.20
2022-09-17T23:54:00.114Z,0.80
2022-09-17T23:56:29.429Z,1.20
2022-09-17T23:59:00.394Z,1.17
